McAllister, Montana
Current Conditions -  °F | °C
As of 7:56 PM on Saturday 22 Nov 2014 (Local Time) from KBZN Reporting Station
Scattered Clouds Scattered Clouds  
Wind Chill: 24°   Ceiling: Unl
Heat Index: 32°   Visibility: 10mi
Dew Point: 19°   Wind: 9mph
Humidity: 59%   Direction: 270°W
Pressure: 29.68"   Gusts: NA
Location:  45.44°N, 111.73°W
Report Text: KBZN 230256Z 27008KT 10SM SCT065 00/M07 A2968 RMK AO2 SLP071 T00001072 53024
Loading
Personal Weather Stations






























Interactive Weather Map New forecast layout! Learn more

10-Day Weather Forecast

Advertisements
Track Severe Weather on mobile